Time;durP1;ratioP1;P1;durP2;ratioP2;P2;SDS_P1;SDS_P2;PMS_P1;PMS_P2;Temp;Humidity;BMP_temperature;BMP_pressure;BME280_temperature;BME280_humidity;BME280_pressure;Samples;Min_cycle;Max_cycle;Signal;HPM_P1;HPM_P2
2022/03/08 00:01:07;;;;;;;6.88;6.38;;;2.20;99.90;;;;;;4926478;29;20314;-62
2022/03/08 00:03:35;;;;;;;8.57;7.78;;;2.10;99.90;;;;;;4932532;29;20192;-63
2022/03/08 00:06:04;;;;;;;7.68;7.03;;;2.20;99.90;;;;;;4939953;29;20195;-62
2022/03/08 00:08:32;;;;;;;8.07;7.47;;;2.20;99.90;;;;;;4933492;29;20250;-60
2022/03/08 00:11:02;;;;;;;8.10;7.40;;;2.40;99.90;;;;;;4932728;29;20229;-60
2022/03/08 00:13:32;;;;;;;8.43;7.57;;;2.30;99.90;;;;;;4944786;29;20744;-62
2022/03/08 00:16:00;;;;;;;7.55;6.85;;;1.90;99.90;;;;;;4951772;29;20216;-62
2022/03/08 00:18:28;;;;;;;7.32;6.63;;;2.00;99.90;;;;;;4930616;29;20192;-62
2022/03/08 00:20:56;;;;;;;8.10;7.30;;;2.30;99.90;;;;;;4943426;29;20314;-62
2022/03/08 00:23:24;;;;;;;6.63;6.03;;;2.30;99.90;;;;;;4934071;29;20236;-62
2022/03/08 00:25:53;;;;;;;6.88;6.28;;;2.10;99.90;;;;;;4934177;29;20263;-63
2022/03/08 00:28:20;;;;;;;9.68;6.68;;;1.90;99.90;;;;;;4934038;29;20200;-62
2022/03/08 00:30:50;;;;;;;7.50;6.65;;;1.90;99.90;;;;;;4952070;29;20302;-62
2022/03/08 00:33:18;;;;;;;7.22;5.32;;;1.90;99.90;;;;;;4950700;29;20306;-62
2022/03/08 00:35:46;;;;;;;8.23;6.63;;;2.10;99.90;;;;;;4942177;29;20718;-62
2022/03/08 00:38:15;;;;;;;6.05;5.55;;;2.30;99.90;;;;;;4941069;28;20215;-62
2022/03/08 00:40:43;;;;;;;6.68;6.15;;;2.10;99.90;;;;;;4946066;29;20299;-60
2022/03/08 00:43:11;;;;;;;6.70;6.10;;;2.00;99.90;;;;;;4927078;29;20195;-60
2022/03/08 00:45:39;;;;;;;6.13;5.63;;;2.00;99.90;;;;;;4933391;29;20657;-60
2022/03/08 00:48:09;;;;;;;6.55;5.95;;;2.00;99.90;;;;;;4942732;29;20278;-60
2022/03/08 00:50:38;;;;;;;8.50;6.50;;;2.10;99.90;;;;;;4933745;29;20697;-61
2022/03/08 00:53:06;;;;;;;7.05;6.45;;;2.30;99.90;;;;;;4944313;28;20216;-60
2022/03/08 00:55:35;;;;;;;6.15;5.63;;;2.10;99.90;;;;;;4952175;29;20265;-61
2022/03/08 00:58:04;;;;;;;6.65;6.15;;;2.20;99.90;;;;;;4937432;29;20235;-60
2022/03/08 01:00:34;;;;;;;6.55;6.05;;;2.10;99.90;;;;;;4937927;29;20250;-60
2022/03/08 01:03:02;;;;;;;6.75;6.15;;;2.30;99.90;;;;;;4943618;29;20211;-60
2022/03/08 01:05:32;;;;;;;5.97;5.38;;;2.30;99.90;;;;;;4938068;29;20207;-61
2022/03/08 01:08:02;;;;;;;6.35;5.75;;;2.40;99.90;;;;;;4942312;29;20227;-60
2022/03/08 01:10:31;;;;;;;6.10;5.60;;;2.60;99.90;;;;;;4936631;29;20224;-60
2022/03/08 01:12:59;;;;;;;5.70;5.30;;;2.40;99.90;;;;;;4947841;29;20203;-60
2022/03/08 01:15:28;;;;;;;6.10;5.70;;;2.30;99.90;;;;;;4934852;29;20752;-61
2022/03/08 01:17:57;;;;;;;6.60;6.10;;;2.30;99.90;;;;;;4955215;29;20286;-60
2022/03/08 01:20:38;;;;;;;6.45;5.90;;;2.10;99.90;;;;;;4939959;29;20263;-60
2022/03/08 01:23:07;;;;;;;6.55;5.95;;;2.00;99.90;;;;;;4921251;29;20603;-62
2022/03/08 01:25:37;;;;;;;7.38;6.78;;;2.20;99.90;;;;;;4928372;29;20295;-62
2022/03/08 01:28:06;;;;;;;5.85;5.35;;;2.10;99.90;;;;;;4936019;29;20287;-62
2022/03/08 01:30:34;;;;;;;6.47;5.90;;;2.10;99.90;;;;;;4936256;29;20722;-62
2022/03/08 01:33:02;;;;;;;6.68;6.18;;;2.40;99.90;;;;;;4916260;29;20303;-62
2022/03/08 01:35:30;;;;;;;6.20;5.70;;;2.40;99.90;;;;;;4921737;29;20247;-62
2022/03/08 01:37:58;;;;;;;6.15;5.65;;;2.50;99.90;;;;;;4917392;29;20232;-62
2022/03/08 01:40:27;;;;;;;6.70;6.05;;;2.60;99.90;;;;;;4917390;29;20236;-62
2022/03/08 01:42:55;;;;;;;6.97;5.65;;;2.50;99.90;;;;;;4917077;29;20225;-62
2022/03/08 01:45:25;;;;;;;6.05;5.53;;;2.50;99.90;;;;;;4917280;29;20284;-63
2022/03/08 01:47:54;;;;;;;7.00;5.70;;;2.50;99.90;;;;;;4916917;29;20204;-62
2022/03/08 01:50:22;;;;;;;5.88;5.38;;;2.40;99.90;;;;;;4917142;29;20295;-61
2022/03/08 01:52:50;;;;;;;6.38;5.88;;;2.40;99.90;;;;;;4916890;29;20225;-62
2022/03/08 01:55:18;;;;;;;5.43;5.03;;;2.40;99.90;;;;;;4915215;29;20213;-62
2022/03/08 01:57:50;;;;;;;5.55;5.15;;;2.40;99.90;;;;;;4916822;29;20292;-62
2022/03/08 02:00:21;;;;;;;6.10;5.60;;;2.60;99.90;;;;;;4916903;29;20287;-63
2022/03/08 02:02:49;;;;;;;6.80;6.30;;;2.50;99.90;;;;;;4916547;29;20315;-62
2022/03/08 02:05:22;;;;;;;5.70;5.30;;;2.50;99.90;;;;;;4926834;29;20714;-62
2022/03/08 02:07:49;;;;;;;6.45;5.90;;;2.50;99.90;;;;;;4919435;29;20341;-62
2022/03/08 02:10:18;;;;;;;6.88;6.28;;;2.40;99.90;;;;;;4916765;29;20236;-62
2022/03/08 02:12:47;;;;;;;6.03;5.43;;;2.00;99.90;;;;;;4916052;29;20263;-62
2022/03/08 02:15:17;;;;;;;5.75;5.30;;;2.00;99.90;;;;;;4916319;29;20785;-62
2022/03/08 02:17:45;;;;;;;5.97;5.50;;;2.30;99.90;;;;;;4915554;29;20267;-62
2022/03/08 02:20:14;;;;;;;6.07;5.57;;;2.10;99.90;;;;;;4916738;29;20228;-62
2022/03/08 02:22:44;;;;;;;6.10;5.60;;;2.10;99.90;;;;;;4916096;29;20232;-62
2022/03/08 02:25:12;;;;;;;6.80;6.20;;;2.10;99.90;;;;;;4916327;29;20239;-62
2022/03/08 02:27:43;;;;;;;6.65;6.13;;;1.70;99.90;;;;;;4916172;29;20213;-62
2022/03/08 02:30:11;;;;;;;6.38;5.55;;;1.60;99.90;;;;;;4916048;29;20296;-62
2022/03/08 02:32:40;;;;;;;6.93;6.32;;;1.60;99.90;;;;;;4915817;29;20255;-62
2022/03/08 02:35:10;;;;;;;6.38;5.80;;;1.50;99.90;;;;;;4918403;29;20299;-61
2022/03/08 02:37:40;;;;;;;6.43;5.82;;;1.70;99.90;;;;;;4921126;29;20200;-62
2022/03/08 02:40:11;;;;;;;6.20;5.70;;;1.80;99.90;;;;;;4916186;29;20221;-62
2022/03/08 02:42:39;;;;;;;5.47;5.07;;;1.80;99.90;;;;;;4915732;29;20709;-63
2022/03/08 02:45:09;;;;;;;7.13;6.43;;;1.70;99.90;;;;;;4915727;29;20288;-63
2022/03/08 02:47:37;;;;;;;6.82;6.30;;;2.00;99.90;;;;;;4915656;29;20283;-63
2022/03/08 02:50:06;;;;;;;8.70;5.75;;;2.20;99.90;;;;;;4915982;29;20721;-62
2022/03/08 02:52:34;;;;;;;5.93;5.43;;;2.40;99.90;;;;;;4915429;29;20781;-63
2022/03/08 02:55:04;;;;;;;6.03;5.53;;;2.60;99.90;;;;;;4915961;29;20231;-63
2022/03/08 02:57:33;;;;;;;6.07;5.65;;;2.60;99.90;;;;;;4915325;29;20658;-62
2022/03/08 03:00:01;;;;;;;6.20;5.80;;;2.80;99.90;;;;;;4915403;29;20233;-63
2022/03/08 03:02:29;;;;;;;4.75;4.45;;;2.90;99.90;;;;;;4915403;29;20220;-63
2022/03/08 03:04:57;;;;;;;5.47;4.95;;;3.00;99.90;;;;;;4922298;29;20204;-63
2022/03/08 03:07:25;;;;;;;5.50;5.10;;;3.10;99.90;;;;;;4917109;29;20295;-63
2022/03/08 03:09:53;;;;;;;5.18;4.78;;;3.30;99.90;;;;;;4915321;29;20256;-63
2022/03/08 03:12:21;;;;;;;6.63;4.95;;;3.40;99.90;;;;;;4914997;29;20315;-63
2022/03/08 03:14:50;;;;;;;5.50;5.00;;;3.50;99.90;;;;;;4915330;29;20209;-64
2022/03/08 03:17:18;;;;;;;6.00;5.60;;;3.50;99.90;;;;;;4915131;29;20200;-63
2022/03/08 03:19:46;;;;;;;5.65;5.20;;;3.40;99.90;;;;;;4914377;29;20626;-63
2022/03/08 03:22:14;;;;;;;5.75;5.25;;;3.00;99.90;;;;;;4912602;29;20327;-62
2022/03/08 03:24:41;;;;;;;5.85;5.40;;;2.60;99.90;;;;;;4909358;29;20209;-62
2022/03/08 03:27:09;;;;;;;5.82;5.25;;;2.40;99.90;;;;;;4912119;29;20865;-62
2022/03/08 03:29:37;;;;;;;6.10;5.60;;;2.20;99.90;;;;;;4909444;29;20292;-63
2022/03/08 03:32:07;;;;;;;5.78;5.28;;;2.00;99.90;;;;;;4911536;29;20240;-62
2022/03/08 03:34:35;;;;;;;6.18;5.57;;;2.10;99.90;;;;;;4910261;29;20232;-63
2022/03/08 03:37:04;;;;;;;6.45;5.93;;;2.10;99.90;;;;;;4920996;29;20951;-62
2022/03/08 03:39:32;;;;;;;6.57;6.07;;;2.00;99.90;;;;;;4914822;29;20227;-62
2022/03/08 03:42:00;;;;;;;7.47;6.85;;;2.00;99.90;;;;;;4915165;29;20319;-62
2022/03/08 03:44:28;;;;;;;5.57;5.18;;;1.80;99.90;;;;;;4915085;29;20337;-63
2022/03/08 03:46:56;;;;;;;5.97;5.47;;;1.70;99.90;;;;;;4915035;29;20257;-62
2022/03/08 03:49:25;;;;;;;6.20;5.70;;;1.60;99.90;;;;;;4915206;29;20624;-63
2022/03/08 03:51:53;;;;;;;6.60;6.10;;;1.30;99.90;;;;;;4915065;29;20320;-62
2022/03/08 03:54:21;;;;;;;5.60;5.20;;;1.30;99.90;;;;;;4915097;29;20252;-62
2022/03/08 03:56:50;;;;;;;6.40;5.45;;;1.10;99.90;;;;;;4914908;29;20303;-62
2022/03/08 03:59:18;;;;;;;6.40;5.75;;;1.10;99.90;;;;;;4914990;29;20243;-62
2022/03/08 04:01:45;;;;;;;6.20;5.60;;;1.10;99.90;;;;;;4914917;29;20702;-62
2022/03/08 04:04:14;;;;;;;6.05;5.63;;;1.10;99.90;;;;;;4918005;29;20202;-62
2022/03/08 04:06:43;;;;;;;6.07;5.63;;;1.00;99.90;;;;;;4917071;29;20658;-62
2022/03/08 04:09:13;;;;;;;5.72;5.32;;;1.30;99.90;;;;;;4914767;29;20242;-62
2022/03/08 04:11:40;;;;;;;6.13;5.72;;;1.50;99.90;;;;;;4914918;29;20244;-62
2022/03/08 04:14:08;;;;;;;8.32;6.30;;;1.50;99.90;;;;;;4914844;29;20295;-62
2022/03/08 04:16:36;;;;;;;5.50;5.00;;;1.40;99.90;;;;;;4914866;29;20311;-62
2022/03/08 04:19:04;;;;;;;5.82;5.43;;;1.20;99.90;;;;;;4914916;29;20208;-62
2022/03/08 04:21:32;;;;;;;5.72;5.32;;;1.00;99.90;;;;;;4914700;29;20276;-63
2022/03/08 04:24:01;;;;;;;6.90;6.30;;;0.90;99.90;;;;;;4914556;29;20287;-62
2022/03/08 04:26:29;;;;;;;6.40;5.90;;;1.00;99.90;;;;;;4914977;29;20224;-62
2022/03/08 04:28:57;;;;;;;6.07;5.47;;;1.00;99.90;;;;;;4910802;29;20239;-61
2022/03/08 04:31:25;;;;;;;6.05;5.55;;;1.00;99.90;;;;;;4914818;29;20308;-62
2022/03/08 04:33:53;;;;;;;5.97;5.35;;;0.90;99.90;;;;;;4916202;29;20208;-62
2022/03/08 04:36:20;;;;;;;6.28;5.30;;;1.10;99.90;;;;;;4925928;29;20800;-62
2022/03/08 04:38:48;;;;;;;6.45;5.85;;;1.10;99.90;;;;;;4918223;29;20251;-62
2022/03/08 04:41:18;;;;;;;6.85;6.13;;;1.20;99.90;;;;;;4918398;29;20642;-62
2022/03/08 04:43:46;;;;;;;7.55;5.60;;;1.20;99.90;;;;;;4918097;29;20291;-62
2022/03/08 04:46:14;;;;;;;6.70;6.15;;;1.10;99.90;;;;;;4918093;29;20710;-61
2022/03/08 04:48:42;;;;;;;6.38;5.80;;;1.10;99.90;;;;;;4917665;29;20295;-62
2022/03/08 04:51:10;;;;;;;6.15;5.63;;;1.10;99.90;;;;;;4916140;29;20251;-63
2022/03/08 04:53:39;;;;;;;6.55;6.05;;;1.20;99.90;;;;;;4917581;29;20232;-62
2022/03/08 04:56:06;;;;;;;6.43;5.93;;;1.30;99.90;;;;;;4917998;29;20765;-62
2022/03/08 04:58:36;;;;;;;6.50;5.97;;;1.40;99.90;;;;;;4917949;29;20622;-62
2022/03/08 05:01:04;;;;;;;5.72;5.28;;;1.30;99.90;;;;;;4917269;29;20303;-61
2022/03/08 05:03:32;;;;;;;6.68;6.10;;;1.20;99.90;;;;;;4917452;29;20300;-62
2022/03/08 05:06:00;;;;;;;6.38;5.88;;;1.10;99.90;;;;;;4922729;29;20207;-62
2022/03/08 05:08:29;;;;;;;6.97;6.38;;;1.00;99.90;;;;;;4923973;29;20666;-62
2022/03/08 05:10:57;;;;;;;5.45;5.05;;;1.30;99.90;;;;;;4917194;29;20716;-62
2022/03/08 05:13:25;;;;;;;6.40;5.90;;;1.50;99.90;;;;;;4917577;29;20287;-62
2022/03/08 05:15:54;;;;;;;6.13;5.63;;;1.50;99.90;;;;;;4917064;29;20192;-62
2022/03/08 05:18:22;;;;;;;5.88;5.47;;;1.30;99.90;;;;;;4917020;29;20204;-62
2022/03/08 05:20:50;;;;;;;6.68;6.15;;;1.30;99.90;;;;;;4916544;29;20680;-62
2022/03/08 05:23:18;;;;;;;6.65;6.15;;;1.50;99.90;;;;;;4916876;29;20228;-61
2022/03/08 05:25:46;;;;;;;6.03;5.53;;;1.30;99.90;;;;;;4917204;29;20203;-62
2022/03/08 05:28:14;;;;;;;6.63;6.13;;;1.20;99.90;;;;;;4916797;29;20283;-62
2022/03/08 05:30:42;;;;;;;7.70;7.05;;;0.90;99.90;;;;;;4916889;29;20291;-62
2022/03/08 05:33:12;;;;;;;6.55;5.95;;;0.70;99.90;;;;;;4917525;29;20829;-62
2022/03/08 05:35:41;;;;;;;7.00;6.40;;;0.60;99.90;;;;;;4924631;29;20288;-61
2022/03/08 05:38:08;;;;;;;6.70;6.18;;;0.40;99.90;;;;;;4918059;29;20303;-62
2022/03/08 05:40:42;;;;;;;6.63;6.10;;;0.70;99.90;;;;;;4916836;29;20216;-62
2022/03/08 05:43:10;;;;;;;8.25;7.53;;;0.70;99.90;;;;;;4917024;29;20721;-62
2022/03/08 05:45:38;;;;;;;6.70;6.20;;;0.50;99.90;;;;;;4916710;29;20232;-62
2022/03/08 05:48:06;;;;;;;6.07;5.55;;;0.50;99.90;;;;;;4915800;29;20197;-62
2022/03/08 05:50:35;;;;;;;7.03;6.43;;;0.60;99.90;;;;;;4916279;29;20284;-62
2022/03/08 05:53:03;;;;;;;7.45;6.75;;;0.70;99.90;;;;;;4916024;29;20299;-62
2022/03/08 05:55:31;;;;;;;6.57;6.07;;;0.70;99.90;;;;;;4910660;29;20232;-62
2022/03/08 05:57:59;;;;;;;8.07;7.28;;;0.70;99.90;;;;;;4910454;29;20252;-62
2022/03/08 06:00:28;;;;;;;6.88;6.25;;;0.80;99.90;;;;;;4910615;29;20283;-61
2022/03/08 06:02:56;;;;;;;7.80;7.20;;;0.90;99.90;;;;;;4910869;29;20216;-62
2022/03/08 06:05:24;;;;;;;7.85;7.05;;;1.00;99.90;;;;;;4919533;29;20672;-62
2022/03/08 06:07:54;;;;;;;9.55;6.50;;;1.00;99.90;;;;;;4915044;29;20566;-62
2022/03/08 06:10:22;;;;;;;10.05;6.63;;;1.10;99.90;;;;;;4910949;29;20291;-62
2022/03/08 06:12:50;;;;;;;6.50;6.00;;;1.00;99.90;;;;;;4914999;29;20325;-62
2022/03/08 06:15:18;;;;;;;7.05;6.35;;;1.10;99.90;;;;;;4910443;29;20348;-62
2022/03/08 06:17:46;;;;;;;6.93;6.40;;;1.10;99.90;;;;;;4915751;29;20311;-61
2022/03/08 06:20:14;;;;;;;9.98;7.47;;;0.90;99.90;;;;;;4910370;29;20227;-62
2022/03/08 06:22:42;;;;;;;7.57;6.93;;;0.80;99.90;;;;;;4915850;29;20239;-61
2022/03/08 06:25:12;;;;;;;9.30;7.28;;;0.90;99.90;;;;;;4916465;29;20312;-62
2022/03/08 06:27:39;;;;;;;8.25;6.40;;;1.00;99.90;;;;;;4915667;29;20193;-61
2022/03/08 06:30:09;;;;;;;8.30;7.32;;;1.10;99.90;;;;;;4915836;29;20283;-61
2022/03/08 06:32:37;;;;;;;8.55;7.07;;;1.10;99.90;;;;;;4916163;29;20240;-62
2022/03/08 06:35:05;;;;;;;8.48;7.70;;;1.10;99.90;;;;;;4922547;29;20280;-61
2022/03/08 06:37:33;;;;;;;9.35;6.90;;;1.10;99.90;;;;;;4917391;29;20233;-61
2022/03/08 06:40:01;;;;;;;8.07;7.38;;;1.20;99.90;;;;;;4915331;29;20287;-62
2022/03/08 06:42:31;;;;;;;7.63;6.97;;;1.20;99.90;;;;;;4915434;29;20220;-62
2022/03/08 06:44:58;;;;;;;8.75;6.53;;;1.50;99.90;;;;;;4915202;29;20754;-61
2022/03/08 06:47:26;;;;;;;7.97;7.28;;;1.50;99.90;;;;;;4916365;29;20279;-62
2022/03/08 06:49:54;;;;;;;9.18;7.80;;;1.50;99.90;;;;;;4916152;29;20232;-62
2022/03/08 06:52:22;;;;;;;7.95;7.35;;;1.70;99.90;;;;;;4915812;29;20259;-61
2022/03/08 06:54:50;;;;;;;11.13;8.20;;;1.70;99.90;;;;;;4916227;29;20315;-60
2022/03/08 06:57:18;;;;;;;8.77;7.75;;;1.80;99.90;;;;;;4915863;29;20300;-62
2022/03/08 06:59:47;;;;;;;6.80;6.30;;;1.70;99.90;;;;;;4914268;29;20228;-62
2022/03/08 07:02:15;;;;;;;7.57;6.93;;;1.70;99.90;;;;;;4913273;29;20585;-61
2022/03/08 07:04:43;;;;;;;8.30;7.60;;;1.70;99.90;;;;;;4916317;29;20539;-62
2022/03/08 07:07:11;;;;;;;8.98;7.25;;;1.80;99.90;;;;;;4925891;29;20235;-61
2022/03/08 07:09:38;;;;;;;8.23;7.40;;;1.80;99.90;;;;;;4915684;29;20308;-62
2022/03/08 07:12:07;;;;;;;8.18;7.40;;;2.00;99.90;;;;;;4914851;29;20316;-62
2022/03/08 07:14:36;;;;;;;8.25;7.45;;;1.90;99.90;;;;;;4915621;29;20629;-61
2022/03/08 07:17:05;;;;;;;11.07;7.35;;;1.90;99.90;;;;;;4915474;29;20232;-62
2022/03/08 07:19:33;;;;;;;8.82;7.95;;;2.00;99.90;;;;;;4915593;29;20243;-62
2022/03/08 07:22:01;;;;;;;8.68;7.85;;;2.00;99.90;;;;;;4914846;29;20363;-62
2022/03/08 07:24:29;;;;;;;9.00;8.10;;;2.00;99.90;;;;;;4915653;29;20328;-63
2022/03/08 07:26:57;;;;;;;8.70;7.88;;;2.00;99.90;;;;;;4914960;29;20642;-62
2022/03/08 07:29:25;;;;;;;8.88;7.72;;;2.10;99.90;;;;;;4915300;29;20284;-63
2022/03/08 07:31:53;;;;;;;11.23;7.70;;;2.20;99.90;;;;;;4915455;29;20339;-63
2022/03/08 07:34:22;;;;;;;8.07;7.45;;;2.20;99.90;;;;;;4917684;29;20304;-62
2022/03/08 07:36:50;;;;;;;8.18;7.38;;;2.20;99.90;;;;;;4915549;29;20232;-61
2022/03/08 07:39:18;;;;;;;9.82;8.90;;;2.30;99.90;;;;;;4914477;29;20307;-62
2022/03/08 07:41:45;;;;;;;9.05;7.72;;;2.40;99.90;;;;;;4914987;29;20737;-62
2022/03/08 07:44:13;;;;;;;8.68;7.75;;;2.50;99.90;;;;;;4911941;29;20284;-62
2022/03/08 07:46:41;;;;;;;7.40;6.80;;;2.50;99.90;;;;;;4916012;29;20211;-62
2022/03/08 07:49:09;;;;;;;8.90;8.10;;;2.70;99.90;;;;;;4919045;29;20220;-61
2022/03/08 07:51:50;;;;;;;7.65;7.05;;;2.80;99.90;;;;;;4907476;29;20307;-61
2022/03/08 07:54:19;;;;;;;9.13;8.23;;;2.90;99.90;;;;;;4908112;29;20288;-62
2022/03/08 07:56:47;;;;;;;7.68;6.88;;;3.20;99.90;;;;;;4909423;29;20200;-62
2022/03/08 07:59:15;;;;;;;8.77;8.00;;;3.20;99.90;;;;;;4909666;29;20317;-61
2022/03/08 08:01:43;;;;;;;8.13;7.38;;;3.40;99.90;;;;;;4909382;29;20221;-61
2022/03/08 08:04:11;;;;;;;8.18;7.40;;;3.50;99.90;;;;;;4913933;29;20227;-61
2022/03/08 08:06:39;;;;;;;7.78;7.07;;;3.90;99.90;;;;;;4916346;29;20287;-60
2022/03/08 08:09:08;;;;;;;9.25;8.35;;;3.90;99.90;;;;;;4909798;29;20287;-63
2022/03/08 08:11:36;;;;;;;8.85;7.93;;;4.10;99.90;;;;;;4910190;29;20697;-62
2022/03/08 08:14:04;;;;;;;7.88;7.18;;;4.10;99.90;;;;;;4921837;29;20295;-62
2022/03/08 08:16:32;;;;;;;7.80;7.18;;;4.20;99.90;;;;;;4913569;29;20236;-59
2022/03/08 08:19:00;;;;;;;7.70;7.10;;;4.40;99.90;;;;;;4913756;29;20677;-63
2022/03/08 08:21:28;;;;;;;8.27;7.57;;;4.60;99.90;;;;;;4912656;29;20280;-62
2022/03/08 08:23:56;;;;;;;7.95;7.25;;;4.70;99.90;;;;;;4917658;29;20210;-62
2022/03/08 08:26:25;;;;;;;8.57;7.88;;;4.90;99.90;;;;;;4912888;29;20235;-62
2022/03/08 08:28:54;;;;;;;8.98;8.18;;;5.20;99.90;;;;;;4913269;29;20205;-61
2022/03/08 08:31:23;;;;;;;7.80;7.10;;;5.40;99.90;;;;;;4911570;29;20248;-62
2022/03/08 08:33:51;;;;;;;8.27;7.57;;;5.60;99.70;;;;;;4910638;29;20698;-61
2022/03/08 08:36:19;;;;;;;9.27;7.72;;;5.80;99.90;;;;;;4914937;29;20239;-61
2022/03/08 08:38:47;;;;;;;8.27;7.53;;;6.00;98.90;;;;;;4914814;29;20299;-61
2022/03/08 08:41:15;;;;;;;9.40;8.50;;;6.20;97.90;;;;;;4922927;29;20310;-60
2022/03/08 08:43:44;;;;;;;8.70;7.80;;;6.40;97.50;;;;;;4914780;29;20725;-61
2022/03/08 08:46:12;;;;;;;8.95;8.15;;;6.30;96.90;;;;;;4913049;29;20324;-60
2022/03/08 08:48:40;;;;;;;8.35;7.55;;;6.60;96.90;;;;;;4912694;29;20292;-61
2022/03/08 08:51:08;;;;;;;10.98;8.57;;;6.80;95.90;;;;;;4913013;29;20312;-60
2022/03/08 08:53:36;;;;;;;7.93;7.10;;;6.90;95.90;;;;;;4911211;29;20243;-60
2022/03/08 08:56:04;;;;;;;9.35;8.55;;;7.00;95.20;;;;;;4916085;29;20213;-60
2022/03/08 08:58:31;;;;;;;7.47;6.72;;;7.00;95.50;;;;;;4913437;29;20259;-60
2022/03/08 09:01:01;;;;;;;10.65;7.43;;;7.40;96.60;;;;;;4911773;29;20590;-61
2022/03/08 09:03:30;;;;;;;8.38;7.68;;;7.60;94.60;;;;;;4911142;29;20209;-61
2022/03/08 09:05:58;;;;;;;7.07;6.40;;;7.70;93.80;;;;;;4920435;29;20256;-62
2022/03/08 09:08:26;;;;;;;7.82;7.18;;;8.00;94.70;;;;;;4917046;29;20742;-61
2022/03/08 09:10:59;;;;;;;7.78;6.60;;;8.10;95.50;;;;;;4914829;29;20220;-61
2022/03/08 09:13:28;;;;;;;8.68;7.88;;;8.30;94.50;;;;;;4915258;29;20268;-61
2022/03/08 09:15:55;;;;;;;11.25;8.27;;;8.40;91.90;;;;;;4912455;29;20234;-60
2022/03/08 09:18:25;;;;;;;8.30;7.50;;;8.40;92.70;;;;;;4912150;29;20313;-61
2022/03/08 09:20:53;;;;;;;9.05;7.75;;;8.70;93.00;;;;;;4912054;29;20209;-61
2022/03/08 09:23:21;;;;;;;9.20;8.23;;;8.70;91.30;;;;;;4911760;29;20205;-61
2022/03/08 09:25:49;;;;;;;8.77;8.05;;;8.60;91.50;;;;;;4912061;29;20228;-60
2022/03/08 09:28:17;;;;;;;8.73;7.38;;;8.80;91.40;;;;;;4913023;29;20219;-61
2022/03/08 09:30:46;;;;;;;7.88;7.18;;;8.80;91.50;;;;;;4911049;29;20295;-61
2022/03/08 09:33:14;;;;;;;8.45;7.20;;;8.90;90.80;;;;;;4912103;29;20200;-61
2022/03/08 09:35:46;;;;;;;9.55;8.23;;;9.10;91.50;;;;;;4911992;29;20201;-61
2022/03/08 09:38:14;;;;;;;8.80;8.00;;;8.90;90.40;;;;;;4911907;29;20617;-61
2022/03/08 09:40:42;;;;;;;8.98;7.70;;;9.00;90.20;;;;;;4911445;29;20232;-60
2022/03/08 09:43:11;;;;;;;8.00;7.22;;;8.90;90.40;;;;;;4911266;29;20235;-60
2022/03/08 09:45:39;;;;;;;7.88;7.15;;;9.10;90.10;;;;;;4911328;29;20197;-61
2022/03/08 09:48:07;;;;;;;12.10;7.25;;;9.20;90.00;;;;;;4911757;29;20230;-61
2022/03/08 09:50:35;;;;;;;8.65;7.10;;;9.50;90.50;;;;;;4911377;29;20288;-61
2022/03/08 09:53:05;;;;;;;8.50;6.10;;;9.90;89.10;;;;;;4911664;29;20228;-61
2022/03/08 09:55:34;;;;;;;8.48;7.00;;;10.00;87.00;;;;;;4911340;29;20287;-61
2022/03/08 09:58:02;;;;;;;8.13;6.68;;;9.60;86.90;;;;;;4911735;29;20237;-61
2022/03/08 10:00:31;;;;;;;7.32;6.63;;;9.60;85.60;;;;;;4911209;29;20312;-61
2022/03/08 10:03:00;;;;;;;7.60;6.82;;;9.70;88.00;;;;;;4916443;29;20327;-61
2022/03/08 10:05:37;;;;;;;7.25;6.65;;;10.00;86.40;;;;;;4912570;29;20666;-61
2022/03/08 10:08:10;;;;;;;7.50;6.68;;;10.10;85.50;;;;;;4911764;29;20200;-61
2022/03/08 10:10:51;;;;;;;7.72;7.05;;;10.20;85.30;;;;;;4908393;29;20685;-61
2022/03/08 10:13:24;;;;;;;6.40;5.82;;;10.20;84.40;;;;;;4907569;29;20211;-61
2022/03/08 10:16:06;;;;;;;6.15;5.65;;;10.60;83.80;;;;;;4911030;29;20205;-61
2022/03/08 10:18:35;;;;;;;6.40;5.90;;;10.70;82.60;;;;;;4911355;29;20215;-61
2022/03/08 10:21:04;;;;;;;7.30;6.70;;;10.60;83.20;;;;;;4910567;29;20782;-61
2022/03/08 10:23:42;;;;;;;7.55;6.55;;;10.80;82.90;;;;;;4911086;29;20209;-62
2022/03/08 10:26:12;;;;;;;6.00;5.47;;;10.70;80.40;;;;;;4906117;29;20292;-62
2022/03/08 10:28:45;;;;;;;6.38;5.80;;;10.70;79.70;;;;;;4911014;29;20216;-61
2022/03/08 10:31:15;;;;;;;7.63;5.95;;;10.60;79.60;;;;;;4914493;29;20244;-61
2022/03/08 10:33:44;;;;;;;9.73;6.22;;;10.50;78.80;;;;;;4911131;29;20312;-61
2022/03/08 10:36:13;;;;;;;6.60;6.00;;;10.80;79.70;;;;;;4921767;29;20224;-62
2022/03/08 10:39:12;;;;;;;7.32;6.43;;;10.70;78.40;;;;;;4911001;29;20240;-62
2022/03/08 10:41:51;;;;;;;6.53;6.00;;;10.50;78.90;;;;;;4910341;29;20300;-61
2022/03/08 10:44:32;;;;;;;6.50;6.00;;;10.70;79.90;;;;;;4910909;29;20213;-62
2022/03/08 10:47:03;;;;;;;6.28;5.68;;;10.90;80.10;;;;;;4907017;29;20204;-61
2022/03/08 10:49:31;;;;;;;7.50;6.40;;;11.10;78.40;;;;;;4901614;29;20390;-61
2022/03/08 10:52:00;;;;;;;5.78;5.35;;;11.00;78.10;;;;;;4898188;29;20232;-61
2022/03/08 10:54:30;;;;;;;6.22;5.72;;;11.00;79.00;;;;;;4898029;29;20212;-61
2022/03/08 10:56:59;;;;;;;5.65;5.15;;;11.50;78.70;;;;;;4899117;29;20212;-60
2022/03/08 10:59:27;;;;;;;5.57;5.18;;;11.70;77.00;;;;;;4902571;29;20591;-62
2022/03/08 11:01:55;;;;;;;5.72;5.22;;;11.90;75.70;;;;;;4899109;29;20630;-62
2022/03/08 11:04:25;;;;;;;6.68;5.88;;;12.30;75.80;;;;;;4903475;29;20208;-61
2022/03/08 11:06:55;;;;;;;5.25;4.75;;;12.40;74.50;;;;;;4916874;29;20240;-60
2022/03/08 11:09:23;;;;;;;5.00;4.60;;;12.50;75.20;;;;;;4901314;29;20359;-61
2022/03/08 11:11:52;;;;;;;6.43;4.05;;;12.60;75.10;;;;;;4901395;29;20313;-62
2022/03/08 11:14:20;;;;;;;6.28;3.88;;;12.70;71.20;;;;;;4899158;29;20291;-61
2022/03/08 11:16:51;;;;;;;4.00;3.70;;;12.50;69.20;;;;;;4896958;29;20299;-62
2022/03/08 11:19:26;;;;;;;5.05;3.50;;;12.40;69.50;;;;;;4897978;29;20210;-61
2022/03/08 11:21:56;;;;;;;4.53;4.20;;;12.10;69.40;;;;;;4898244;29;20323;-61
2022/03/08 11:24:25;;;;;;;4.90;4.50;;;12.00;69.60;;;;;;4903907;29;20695;-62
2022/03/08 11:26:56;;;;;;;4.95;4.53;;;12.10;70.10;;;;;;4907868;29;20706;-62
2022/03/08 11:29:26;;;;;;;17.58;13.38;;;12.30;68.80;;;;;;4903521;29;20224;-62
2022/03/08 11:31:56;;;;;;;5.65;5.15;;;11.40;69.60;;;;;;4909199;29;20311;-61
2022/03/08 11:34:32;;;;;;;4.40;4.00;;;11.70;70.80;;;;;;4914655;29;20212;-62
2022/03/08 11:37:05;;;;;;;7.43;4.70;;;11.70;70.30;;;;;;4913965;29;20658;-62
2022/03/08 11:39:39;;;;;;;5.28;4.78;;;11.90;70.50;;;;;;4909883;29;20215;-62
2022/03/08 11:42:29;;;;;;;5.10;4.20;;;12.20;69.10;;;;;;4909636;29;20307;-62
2022/03/08 11:44:59;;;;;;;5.28;4.80;;;12.20;69.80;;;;;;4904490;29;20200;-64
2022/03/08 11:47:37;;;;;;;6.70;5.70;;;12.50;69.20;;;;;;4907536;29;20201;-62
2022/03/08 11:50:07;;;;;;;4.80;4.40;;;12.10;68.10;;;;;;4911658;29;20291;-62
2022/03/08 11:52:37;;;;;;;7.13;4.18;;;12.30;68.90;;;;;;4912915;29;20282;-62
2022/03/08 11:55:07;;;;;;;5.20;4.30;;;12.80;68.70;;;;;;4907540;29;20288;-62
2022/03/08 11:57:54;;;;;;;5.28;4.30;;;13.40;66.90;;;;;;4909615;29;20955;-62
2022/03/08 12:00:24;;;;;;;7.18;6.30;;;13.60;65.20;;;;;;4909601;29;20596;-62
2022/03/08 12:02:53;;;;;;;6.38;5.20;;;13.70;65.50;;;;;;4909866;29;20271;-61
2022/03/08 12:06:04;;;;;;;4.30;3.90;;;13.40;64.70;;;;;;4912715;29;20209;-62
2022/03/08 12:08:58;;;;;;;5.70;4.35;;;13.50;64.90;;;;;;4891144;29;20220;-63
2022/03/08 12:11:47;;;;;;;5.82;5.22;;;13.30;64.30;;;;;;4907099;29;20647;-63
2022/03/08 12:14:29;;;;;;;4.35;3.90;;;13.40;64.80;;;;;;4906146;29;20208;-62
2022/03/08 12:17:09;;;;;;;5.10;4.60;;;13.30;64.30;;;;;;4909117;29;20816;-62
2022/03/08 12:19:39;;;;;;;5.40;4.90;;;13.10;64.70;;;;;;4915430;29;20696;-62
2022/03/08 12:22:13;;;;;;;4.50;4.10;;;13.10;65.60;;;;;;4908782;29;20583;-62
2022/03/08 12:24:45;;;;;;;8.27;6.57;;;13.50;64.20;;;;;;4909159;29;20227;-62
2022/03/08 12:27:13;;;;;;;9.95;5.30;;;13.30;64.10;;;;;;4909385;29;20225;-62
2022/03/08 12:30:03;;;;;;;4.65;4.25;;;13.20;63.10;;;;;;4909148;29;20315;-62
2022/03/08 12:32:39;;;;;;;7.95;6.38;;;12.90;63.80;;;;;;4908834;29;20292;-62
2022/03/08 12:35:11;;;;;;;4.45;4.15;;;13.00;63.80;;;;;;4906001;29;20303;-62
2022/03/08 12:37:50;;;;;;;5.28;4.80;;;13.20;63.80;;;;;;4908184;29;20685;-63
2022/03/08 12:40:30;;;;;;;4.70;4.28;;;13.80;64.50;;;;;;4913243;29;20626;-63
2022/03/08 12:43:00;;;;;;;4.88;3.95;;;14.10;63.50;;;;;;4903753;29;20346;-62
2022/03/08 12:45:31;;;;;;;8.65;6.63;;;14.30;62.70;;;;;;4914042;29;20211;-63
2022/03/08 12:48:01;;;;;;;6.45;5.20;;;14.20;61.80;;;;;;4913551;29;20205;-62
2022/03/08 12:50:33;;;;;;;6.25;5.30;;;13.70;63.50;;;;;;4909285;29;20208;-62
2022/03/08 12:53:03;;;;;;;8.00;4.38;;;14.20;61.70;;;;;;4908775;29;20227;-62
2022/03/08 12:55:33;;;;;;;4.25;3.95;;;14.40;62.40;;;;;;4908838;29;20225;-62
2022/03/08 12:58:04;;;;;;;4.57;4.28;;;14.60;60.80;;;;;;4907853;29;20216;-62
2022/03/08 13:00:37;;;;;;;5.03;4.18;;;14.60;60.50;;;;;;4912116;29;20216;-62
2022/03/08 13:03:10;;;;;;;4.95;4.55;;;14.50;60.90;;;;;;4911715;29;20232;-61
2022/03/08 13:05:40;;;;;;;4.82;4.43;;;14.30;61.40;;;;;;4912586;29;20204;-62
2022/03/08 13:08:10;;;;;;;5.55;5.15;;;14.30;61.30;;;;;;4916684;29;20700;-62